Benjamas Naree — 9V9405 — position and weather

sailwx.info

Track history (hours):
 
Tides and Currents Weather Stations Pressure Air Temp Water Temp Dewpoint Dewpoint Depression Visibility Wind Speed Wind Dir Waves Ship Positions

Benjamas Naree

Last reported at 2017-Apr-25 04:39 UTC. Time now 2017-Apr-25 22:25 UTC.
Position N 41°12' W 072°52'.

Length 181 m; draft 9.2 m.

Type: Cargo ship. MMSI: 566377000.

Date/timePositionNaut miles runAvg speedWind from/ knotsBaromVisibWave heightAir tempDewpointWater temp
2017-Apr-25 04:39N 41°12' W 072°52'0 0.1
2017-Apr-25 04:22N 41°12' W 072°52'0 0.1
2017-Apr-25 03:56N 41°12' W 072°52'0 0.2
2017-Apr-25 03:30N 41°12' W 072°52'4 7.8
2017-Apr-25 03:00N 41°11' W 072°47'612.8
2017-Apr-25 02:31N 41°11' W 072°39'612.9
2017-Apr-25 02:01N 41°10' W 072°30'713.8
2017-Apr-25 01:31N 41°11' W 072°21'714.5
2017-Apr-25 01:01N 41°13' W 072°12'914.3
2017-Apr-25 00:22N 41°14' W 071°60'514.2
2017-Apr-25 00:00N 41°14' W 071°53'1113.6
2017-Apr-24 23:13N 41°16' W 071°39'512.8
2017-Apr-24 22:51N 41°17' W 071°33'3 7.0
2017-Apr-24 22:28N 41°16' W 071°29'  
2017-Apr-17 01:22N 37°52' W 030°36'512.5
2017-Apr-17 01:00N 37°52' W 030°30'612.5
2017-Apr-17 00:29N 37°51' W 030°22'612.7
2017-Apr-17 00:00N 37°50' W 030°14'713.0
2017-Apr-16 23:30N 37°50' W 030°06'613.0
2017-Apr-16 23:00N 37°49' W 029°58'713.1
2017-Apr-16 22:30N 37°49' W 029°49'713.2
2017-Apr-16 22:00N 37°48' W 029°41'713.0
2017-Apr-16 21:30N 37°47' W 029°33'612.8
2017-Apr-16 21:00N 37°46' W 029°25'612.8
2017-Apr-16 20:30N 37°45' W 029°17'612.5
2017-Apr-16 20:00N 37°44' W 029°09'612.5
2017-Apr-16 19:30N 37°43' W 029°01'612.4
2017-Apr-16 19:00N 37°43' W 028°54'612.0
2017-Apr-16 18:30N 37°43' W 028°46'611.8
2017-Apr-16 18:01N 37°42' W 028°39'612.2
2017-Apr-16 17:30N 37°42' W 028°31'612.3
2017-Apr-16 17:00N 37°41' W 028°23'612.3
2017-Apr-16 16:30N 37°41' W 028°15'612.3
2017-Apr-16 16:00N 37°41' W 028°08'612.5
2017-Apr-16 15:30N 37°40' W 027°60'612.4
2017-Apr-16 15:00N 37°39' W 027°52'612.4
2017-Apr-16 14:30N 37°38' W 027°44'1212.4
2017-Apr-16 13:30N 37°37' W 027°29'612.5
2017-Apr-16 13:00N 37°37' W 027°21'612.1
2017-Apr-16 12:30N 37°36' W 027°13'612.4
2017-Apr-16 12:00N 37°36' W 027°05'612.6
2017-Apr-16 11:30N 37°35' W 026°57'612.3
2017-Apr-16 11:00N 37°35' W 026°50'612.4
2017-Apr-16 10:31N 37°34' W 026°42'612.5
2017-Apr-16 10:00N 37°33' W 026°34'612.5
2017-Apr-16 09:30N 37°33' W 026°26'612.5
2017-Apr-16 09:00N 37°32' W 026°19'612.7
2017-Apr-16 08:30N 37°31' W 026°11'612.7
2017-Apr-16 08:00N 37°30' W 026°03'713.1
2017-Apr-16 07:30N 37°30' W 025°54'612.8
2017-Apr-16 07:00N 37°29' W 025°46'612.8
2017-Apr-16 06:30N 37°29' W 025°38'612.8
2017-Apr-16 06:00N 37°28' W 025°30'612.5
2017-Apr-16 05:30N 37°27' W 025°23'612.7
2017-Apr-16 05:00N 37°27' W 025°15'612.4
2017-Apr-16 04:30N 37°26' W 025°07'612.8
2017-Apr-16 04:00N 37°26' W 024°59'612.8
2017-Apr-16 03:30N 37°25' W 024°51'612.8
2017-Apr-16 03:00N 37°25' W 024°43'612.6
2017-Apr-16 02:30N 37°24' W 024°35'612.6
2017-Apr-16 02:00N 37°23' W 024°27'612.7
2017-Apr-16 01:30N 37°23' W 024°19'612.7
2017-Apr-16 01:00N 37°22' W 024°11'612.7
2017-Apr-16 00:30N 37°21' W 024°03'612.9
2017-Apr-16 00:00N 37°21' W 023°55'612.8
2017-Apr-15 23:31N 37°20' W 023°47'612.9
2017-Apr-15 23:00N 37°19' W 023°39'612.7
2017-Apr-15 22:30N 37°19' W 023°31'812.9
2017-Apr-15 21:55N 37°18' W 023°22'  
Track history (hours):
 
Tides and Currents Weather Stations Pressure Air Temp Water Temp Dewpoint Dewpoint Depression Visibility Wind Speed Wind Dir Waves Ship Positions

Benjamas Naree

Last reported at 2017-Apr-25 04:39 UTC. Time now 2017-Apr-25 22:25 UTC.
Position N 41°12' W 072°52'.

Length 181 m; draft 9.2 m.

Type: Cargo ship. MMSI: 566377000.

Date/timePositionNaut miles runAvg speedWind from/ knotsBaromVisibWave heightAir tempDewpointWater temp
2017-Apr-25 04:39N 41°12' W 072°52'0 0.1
2017-Apr-25 04:22N 41°12' W 072°52'0 0.1
2017-Apr-25 03:56N 41°12' W 072°52'0 0.2
2017-Apr-25 03:30N 41°12' W 072°52'4 7.8
2017-Apr-25 03:00N 41°11' W 072°47'612.8
2017-Apr-25 02:31N 41°11' W 072°39'612.9
2017-Apr-25 02:01N 41°10' W 072°30'713.8
2017-Apr-25 01:31N 41°11' W 072°21'714.5
2017-Apr-25 01:01N 41°13' W 072°12'914.3
2017-Apr-25 00:22N 41°14' W 071°60'514.2
2017-Apr-25 00:00N 41°14' W 071°53'1113.6
2017-Apr-24 23:13N 41°16' W 071°39'512.8
2017-Apr-24 22:51N 41°17' W 071°33'3 7.0
2017-Apr-24 22:28N 41°16' W 071°29'  
2017-Apr-17 01:22N 37°52' W 030°36'512.5
2017-Apr-17 01:00N 37°52' W 030°30'612.5
2017-Apr-17 00:29N 37°51' W 030°22'612.7
2017-Apr-17 00:00N 37°50' W 030°14'713.0
2017-Apr-16 23:30N 37°50' W 030°06'613.0
2017-Apr-16 23:00N 37°49' W 029°58'713.1
2017-Apr-16 22:30N 37°49' W 029°49'713.2
2017-Apr-16 22:00N 37°48' W 029°41'713.0
2017-Apr-16 21:30N 37°47' W 029°33'612.8
2017-Apr-16 21:00N 37°46' W 029°25'612.8
2017-Apr-16 20:30N 37°45' W 029°17'612.5
2017-Apr-16 20:00N 37°44' W 029°09'612.5
2017-Apr-16 19:30N 37°43' W 029°01'612.4
2017-Apr-16 19:00N 37°43' W 028°54'612.0
2017-Apr-16 18:30N 37°43' W 028°46'611.8
2017-Apr-16 18:01N 37°42' W 028°39'612.2
2017-Apr-16 17:30N 37°42' W 028°31'612.3
2017-Apr-16 17:00N 37°41' W 028°23'612.3
2017-Apr-16 16:30N 37°41' W 028°15'612.3
2017-Apr-16 16:00N 37°41' W 028°08'612.5
2017-Apr-16 15:30N 37°40' W 027°60'612.4
2017-Apr-16 15:00N 37°39' W 027°52'612.4
2017-Apr-16 14:30N 37°38' W 027°44'1212.4
2017-Apr-16 13:30N 37°37' W 027°29'612.5
2017-Apr-16 13:00N 37°37' W 027°21'612.1
2017-Apr-16 12:30N 37°36' W 027°13'612.4
2017-Apr-16 12:00N 37°36' W 027°05'612.6
2017-Apr-16 11:30N 37°35' W 026°57'612.3
2017-Apr-16 11:00N 37°35' W 026°50'612.4
2017-Apr-16 10:31N 37°34' W 026°42'612.5
2017-Apr-16 10:00N 37°33' W 026°34'612.5
2017-Apr-16 09:30N 37°33' W 026°26'612.5
2017-Apr-16 09:00N 37°32' W 026°19'612.7
2017-Apr-16 08:30N 37°31' W 026°11'612.7
2017-Apr-16 08:00N 37°30' W 026°03'713.1
2017-Apr-16 07:30N 37°30' W 025°54'612.8
2017-Apr-16 07:00N 37°29' W 025°46'612.8
2017-Apr-16 06:30N 37°29' W 025°38'612.8
2017-Apr-16 06:00N 37°28' W 025°30'612.5
2017-Apr-16 05:30N 37°27' W 025°23'612.7
2017-Apr-16 05:00N 37°27' W 025°15'612.4
2017-Apr-16 04:30N 37°26' W 025°07'612.8
2017-Apr-16 04:00N 37°26' W 024°59'612.8
2017-Apr-16 03:30N 37°25' W 024°51'612.8
2017-Apr-16 03:00N 37°25' W 024°43'612.6
2017-Apr-16 02:30N 37°24' W 024°35'612.6
2017-Apr-16 02:00N 37°23' W 024°27'612.7
2017-Apr-16 01:30N 37°23' W 024°19'612.7
2017-Apr-16 01:00N 37°22' W 024°11'612.7
2017-Apr-16 00:30N 37°21' W 024°03'612.9
2017-Apr-16 00:00N 37°21' W 023°55'612.8
2017-Apr-15 23:31N 37°20' W 023°47'612.9
2017-Apr-15 23:00N 37°19' W 023°39'612.7
2017-Apr-15 22:30N 37°19' W 023°31'812.9
2017-Apr-15 21:55N 37°18' W 023°22'  

Dump ship's entire track history